createdAt,value
2017-03-12T00:00:08.326Z,79
2017-03-12T00:00:48.925Z,79.1
2017-03-12T00:01:29.527Z,79.1
2017-03-12T00:02:10.094Z,79.1
2017-03-12T00:02:50.735Z,79.28
2017-03-12T00:03:31.334Z,79.28
2017-03-12T00:04:12.015Z,79.57
2017-03-12T00:04:52.578Z,79.57
2017-03-12T00:05:33.245Z,79.57
2017-03-12T00:06:13.827Z,79.57
2017-03-12T00:06:54.532Z,79.57
2017-03-12T00:07:35.094Z,79.57
2017-03-12T00:08:15.748Z,79.28
2017-03-12T00:08:56.346Z,79.57
2017-03-12T00:09:37.690Z,79.57
2017-03-12T00:10:18.255Z,79.57
2017-03-12T00:10:58.938Z,79.47
2017-03-12T00:11:39.579Z,79.57
2017-03-12T00:12:20.226Z,79.57
2017-03-12T00:13:00.886Z,79.19
2017-03-12T00:13:41.546Z,79.1
2017-03-12T00:14:22.207Z,78.91
2017-03-12T00:15:02.842Z,79.47
2017-03-12T00:15:43.506Z,79.1
2017-03-12T00:16:24.160Z,79.28
2017-03-12T00:17:04.798Z,79
2017-03-12T00:17:45.466Z,79.19
2017-03-12T00:18:26.120Z,78.72
2017-03-12T00:19:06.770Z,78.72
2017-03-12T00:19:47.363Z,79
2017-03-12T00:20:27.947Z,78.91
2017-03-12T00:21:08.689Z,78.91
2017-03-12T00:21:49.280Z,78.53
2017-03-12T00:22:29.870Z,78.62
2017-03-12T00:23:10.464Z,78.91
2017-03-12T00:23:51.023Z,79.1
2017-03-12T00:24:31.672Z,79.1
2017-03-12T00:25:12.347Z,79
2017-03-12T00:25:52.977Z,79.28
2017-03-12T00:26:33.632Z,79.1
2017-03-12T00:27:14.250Z,79.19
2017-03-12T00:27:54.830Z,79.19
2017-03-12T00:28:35.501Z,79.47
2017-03-12T00:29:16.156Z,79.1
2017-03-12T00:29:56.748Z,79.28
2017-03-12T00:30:37.341Z,79.47
2017-03-12T00:31:17.892Z,79.66
2017-03-12T00:31:58.562Z,79.57
2017-03-12T00:32:39.160Z,79.28
2017-03-12T00:33:19.864Z,79.28
2017-03-12T00:34:00.415Z,79.38
2017-03-12T00:34:41.098Z,79.57
2017-03-12T00:35:21.716Z,79.38
2017-03-12T00:36:02.380Z,79.47
2017-03-12T00:36:43.028Z,79.66
2017-03-12T00:37:23.685Z,79.57
2017-03-12T00:38:04.379Z,79.47
2017-03-12T00:38:44.992Z,79.57
2017-03-12T00:39:25.686Z,79.47
2017-03-12T00:40:06.275Z,79.95
2017-03-12T00:40:46.844Z,80.04
2017-03-12T00:41:27.495Z,80.33
2017-03-12T00:42:08.090Z,80.04
2017-03-12T00:42:48.682Z,80.24
2017-03-12T00:43:29.250Z,79.85
2017-03-12T00:44:09.903Z,79.95
2017-03-12T00:44:50.499Z,80.24
2017-03-12T00:45:31.110Z,80.14
2017-03-12T00:46:11.759Z,80.04
2017-03-12T00:46:52.416Z,80.14
2017-03-12T00:47:33.079Z,80.33
2017-03-12T00:48:13.751Z,80.04
2017-03-12T00:48:54.373Z,80.52
2017-03-12T00:49:35.038Z,80.04
2017-03-12T00:50:15.687Z,80.14
2017-03-12T00:50:56.345Z,80.19
2017-03-12T00:51:36.989Z,80
2017-03-12T00:52:17.626Z,80.14
2017-03-12T00:52:58.290Z,80.14
2017-03-12T00:53:38.940Z,80.33
2017-03-12T00:54:19.574Z,80.14
2017-03-12T00:55:00.251Z,80.1
2017-03-12T00:55:40.907Z,80.48
2017-03-12T00:56:21.552Z,80.19
2017-03-12T00:57:02.218Z,80.19
2017-03-12T00:57:42.860Z,80.24
2017-03-12T00:58:25.441Z,80.1
2017-03-12T00:59:06.097Z,80.04
2017-03-12T00:59:46.770Z,79.95
2017-03-12T01:00:27.406Z,79.95
2017-03-12T01:01:08.021Z,79.95
2017-03-12T01:01:48.662Z,79.85
2017-03-12T01:02:29.331Z,80.04
2017-03-12T01:03:09.969Z,79.85
2017-03-12T01:03:50.604Z,80.14
2017-03-12T01:04:31.257Z,80.04
2017-03-12T01:05:11.910Z,80.04
2017-03-12T01:05:52.569Z,80.24
2017-03-12T01:06:33.243Z,80.04
2017-03-12T01:07:13.946Z,79.85
2017-03-12T01:07:54.520Z,80.04
2017-03-12T01:08:35.244Z,80.04
2017-03-12T01:09:15.849Z,80.04
2017-03-12T01:09:56.490Z,80.14
2017-03-12T01:10:37.143Z,80.33
2017-03-12T01:11:17.807Z,80.24
2017-03-12T01:11:58.444Z,80.19
2017-03-12T01:12:39.100Z,80.29
2017-03-12T01:13:19.763Z,80.62
2017-03-12T01:14:00.397Z,80.62
2017-03-12T01:14:41.072Z,80.24
2017-03-12T01:15:21.710Z,80.33
2017-03-12T01:16:02.360Z,79.95
2017-03-12T01:16:43.030Z,79.95
2017-03-12T01:17:23.677Z,80.14
2017-03-12T01:18:05.259Z,80.14
2017-03-12T01:18:45.910Z,80.14
2017-03-12T01:19:26.500Z,80.04
2017-03-12T01:20:07.061Z,80.24
2017-03-12T01:20:47.721Z,80.62
2017-03-12T01:21:28.315Z,80.43
2017-03-12T01:22:08.925Z,80.24
2017-03-12T01:22:49.470Z,80.24
2017-03-12T01:23:30.133Z,80.43
2017-03-12T01:24:10.826Z,80.33
2017-03-12T01:24:51.436Z,80.24
2017-03-12T01:25:32.084Z,80.8
2017-03-12T01:26:12.721Z,80.71
2017-03-12T01:26:53.397Z,80.52
2017-03-12T01:27:34.044Z,80.52
2017-03-12T01:28:14.701Z,80.52
2017-03-12T01:28:55.341Z,80.57
2017-03-12T01:29:36.001Z,80.67
2017-03-12T01:30:16.647Z,80.48
2017-03-12T01:30:57.319Z,80.57
2017-03-12T01:31:37.962Z,80.71
2017-03-12T01:32:18.609Z,80.67
2017-03-12T01:32:59.296Z,80.48
2017-03-12T01:33:40.028Z,80.71
2017-03-12T01:34:20.656Z,80.71
2017-03-12T01:35:01.378Z,80.8
2017-03-12T01:35:41.974Z,80.9
2017-03-12T01:36:22.509Z,80.24
2017-03-12T01:37:04.205Z,80.24
2017-03-12T01:37:45.028Z,80.14
2017-03-12T01:38:25.630Z,80.33
2017-03-12T01:39:06.175Z,80.43
2017-03-12T01:39:46.917Z,80.62
2017-03-12T01:40:27.571Z,80.14
2017-03-12T01:41:08.222Z,80.33
2017-03-12T01:41:48.882Z,79.85
2017-03-12T01:42:29.545Z,80.14
2017-03-12T01:43:10.179Z,79.95
2017-03-12T01:43:50.833Z,80.24
2017-03-12T01:44:31.505Z,80.04
2017-03-12T01:45:12.167Z,80.04
2017-03-12T01:45:52.796Z,80.04
2017-03-12T01:46:33.445Z,80.14
2017-03-12T01:47:14.102Z,80.33
2017-03-12T01:47:54.780Z,80.24
2017-03-12T01:48:35.418Z,80.24
2017-03-12T01:49:16.080Z,80.24
2017-03-12T01:49:56.740Z,79.95
2017-03-12T01:50:37.374Z,80.43
2017-03-12T01:51:19.065Z,80.24
2017-03-12T01:51:59.712Z,79.95
2017-03-12T01:52:40.346Z,80.04
2017-03-12T01:53:20.993Z,80.24
2017-03-12T01:54:01.690Z,80.24
2017-03-12T01:54:42.320Z,80.04
2017-03-12T01:55:22.959Z,80.24
2017-03-12T01:56:03.629Z,80.04
2017-03-12T01:56:44.271Z,80.04
2017-03-12T01:57:24.831Z,79.85
2017-03-12T01:58:05.472Z,80.04
2017-03-12T01:58:46.120Z,80.14
2017-03-12T01:59:26.771Z,80.04
2017-03-12T02:00:07.361Z,80.04
2017-03-12T02:00:47.969Z,80.24
2017-03-12T02:01:28.542Z,80.24
2017-03-12T02:02:09.197Z,80.1
2017-03-12T02:02:49.759Z,80.19
2017-03-12T02:03:30.381Z,80.1
2017-03-12T02:04:10.945Z,80.38
2017-03-12T02:04:51.614Z,80.19
2017-03-12T02:05:32.227Z,80.24
2017-03-12T02:06:12.918Z,80.67
2017-03-12T02:06:53.547Z,80.67
2017-03-12T02:07:34.191Z,80.57
2017-03-12T02:08:14.853Z,80.57
2017-03-12T02:08:55.532Z,80.57
2017-03-12T02:09:36.157Z,80.57
2017-03-12T02:10:16.764Z,80.38
2017-03-12T02:10:57.458Z,80.57
2017-03-12T02:11:38.028Z,80.57
2017-03-12T02:12:18.663Z,81.05
2017-03-12T02:12:59.278Z,81.33
2017-03-12T02:13:39.835Z,80.95
2017-03-12T02:14:20.423Z,80.95
2017-03-12T02:15:01.077Z,80.95
2017-03-12T02:15:41.729Z,80.95
2017-03-12T02:16:22.393Z,80.95
2017-03-12T02:17:03.055Z,80.95
2017-03-12T02:17:43.686Z,81.05
2017-03-12T02:18:24.363Z,81.24
2017-03-12T02:19:05.011Z,81.24
2017-03-12T02:19:45.633Z,81.05
2017-03-12T02:20:26.199Z,80.76
2017-03-12T02:21:06.875Z,80.67
2017-03-12T02:21:47.486Z,80.67
2017-03-12T02:22:28.042Z,80.67
2017-03-12T02:23:09.648Z,80.86
2017-03-12T02:23:50.270Z,80.67
2017-03-12T02:24:30.819Z,80.86
2017-03-12T02:25:11.492Z,80.95
2017-03-12T02:25:52.159Z,80.57
2017-03-12T02:26:32.798Z,80.95
2017-03-12T02:27:13.479Z,81.14
2017-03-12T02:27:54.100Z,81.05
2017-03-12T02:28:34.668Z,81.33
2017-03-12T02:29:15.305Z,81.14
2017-03-12T02:29:55.965Z,81.14
2017-03-12T02:30:36.630Z,81.05
2017-03-12T02:32:49.966Z,81.33
2017-03-12T02:33:30.572Z,81.52
2017-03-12T02:34:11.231Z,81.43
2017-03-12T02:34:51.878Z,81.24
2017-03-12T02:35:32.530Z,81.33
2017-03-12T02:36:13.186Z,81.24
2017-03-12T02:36:53.841Z,81.24
2017-03-12T02:37:34.505Z,81.52
2017-03-12T02:38:15.144Z,81.43
2017-03-12T02:38:55.790Z,81.52
2017-03-12T02:39:36.453Z,81.71
2017-03-12T02:40:17.110Z,81.71
2017-03-12T02:40:57.758Z,81.62
2017-03-12T02:41:38.411Z,81.62
2017-03-12T02:42:19.063Z,81.52
2017-03-12T02:43:00.643Z,81.71
2017-03-12T02:43:42.214Z,81.43
2017-03-12T02:44:22.869Z,81.9
2017-03-12T02:45:03.413Z,81.99
2017-03-12T02:45:44.078Z,81.9
2017-03-12T02:46:24.681Z,81.71
2017-03-12T02:47:05.275Z,81.99
2017-03-12T02:47:45.849Z,81.99
2017-03-12T02:48:26.484Z,81.99
2017-03-12T02:49:07.068Z,82.09
2017-03-12T02:49:47.673Z,81.71
2017-03-12T02:50:28.239Z,81.71
2017-03-12T02:51:08.902Z,81.9
2017-03-12T02:51:49.493Z,82.37
2017-03-12T02:52:30.080Z,82.28
2017-03-12T02:53:10.648Z,82.28
2017-03-12T02:53:51.289Z,81.9
2017-03-12T02:54:31.895Z,81.9
2017-03-12T02:55:12.494Z,81.81
2017-03-12T02:55:53.086Z,81.9
2017-03-12T02:56:33.740Z,82.28
2017-03-12T02:57:14.429Z,81.62
2017-03-12T02:57:55.003Z,81.71
2017-03-12T02:58:35.559Z,82.18
2017-03-12T02:59:16.211Z,81.99
2017-03-12T02:59:56.812Z,82.28
2017-03-12T03:00:37.473Z,82.28
2017-03-12T03:01:18.110Z,82.37
2017-03-12T03:01:58.669Z,82.28
2017-03-12T03:02:39.331Z,82.28
2017-03-12T03:03:19.984Z,82.18
2017-03-12T03:04:00.626Z,82.18
2017-03-12T03:04:41.227Z,82.09
2017-03-12T03:05:21.797Z,82.56
2017-03-12T03:06:02.429Z,82.47
2017-03-12T03:06:43.057Z,82.28
2017-03-12T03:07:24.655Z,82.66
2017-03-12T03:08:05.227Z,81.9
2017-03-12T03:08:45.873Z,82.47
2017-03-12T03:09:26.460Z,82.28
2017-03-12T03:10:07.092Z,82.37
2017-03-12T03:10:47.763Z,82.37
2017-03-12T03:11:28.393Z,82.37
2017-03-12T03:12:09.044Z,82.18
2017-03-12T03:12:49.698Z,82.47
2017-03-12T03:13:30.348Z,82.37
2017-03-12T03:14:11.004Z,82.37
2017-03-12T03:14:51.653Z,82.28
2017-03-12T03:15:32.346Z,82.47
2017-03-12T03:16:12.941Z,82.18
2017-03-12T03:16:53.617Z,82.47
2017-03-12T03:17:34.272Z,82.66
2017-03-12T03:18:14.904Z,82.75
2017-03-12T03:18:55.587Z,82.62
2017-03-12T03:19:36.227Z,82.43
2017-03-12T03:20:16.881Z,82.62
2017-03-12T03:20:57.535Z,82.52
2017-03-12T03:21:38.175Z,82.43
2017-03-12T03:22:18.828Z,82.71
2017-03-12T03:22:59.503Z,82.71
2017-03-12T03:23:40.130Z,82.81
2017-03-12T03:24:20.727Z,82.9
2017-03-12T03:25:01.390Z,83.18
2017-03-12T03:25:41.981Z,83
2017-03-12T03:26:22.546Z,82.81
2017-03-12T03:27:03.204Z,83
2017-03-12T03:27:43.784Z,83.09
2017-03-12T03:28:24.388Z,83.28
2017-03-12T03:29:04.934Z,83.37
2017-03-12T03:29:45.582Z,83.18
2017-03-12T03:30:26.249Z,83.18
2017-03-12T03:31:06.887Z,83.18
2017-03-12T03:31:47.452Z,83.66
2017-03-12T03:32:29.037Z,83.66
2017-03-12T03:33:09.702Z,83.56
2017-03-12T03:33:50.346Z,83.66
2017-03-12T03:34:30.999Z,83.47
2017-03-12T03:35:11.651Z,83.37
2017-03-12T03:35:52.307Z,83.75
2017-03-12T03:36:32.941Z,83.66
2017-03-12T03:37:13.580Z,83.47
2017-03-12T03:37:54.187Z,83.37
2017-03-12T03:38:34.785Z,83.47
2017-03-12T03:39:15.469Z,83.75
2017-03-12T03:39:56.150Z,83.75
2017-03-12T03:40:36.752Z,84.23
2017-03-12T03:41:17.294Z,84.32
2017-03-12T03:41:57.968Z,84.23
2017-03-12T03:42:38.596Z,84.32
2017-03-12T03:43:19.171Z,84.23
2017-03-12T03:43:59.714Z,84.23
2017-03-12T03:44:40.385Z,84.23
2017-03-12T03:45:21.062Z,84.04
2017-03-12T03:46:01.687Z,84.04
2017-03-12T03:46:42.351Z,83.85
2017-03-12T03:47:22.998Z,84.42
2017-03-12T03:48:03.641Z,84.32
2017-03-12T03:48:44.348Z,84.42
2017-03-12T03:49:24.963Z,84.42
2017-03-12T03:50:05.590Z,84.32
2017-03-12T03:50:46.263Z,84.42
2017-03-12T03:51:26.907Z,84.04
2017-03-12T03:52:07.562Z,84.13
2017-03-12T03:52:48.229Z,84.7
2017-03-12T03:53:28.870Z,84.8
2017-03-12T03:54:09.531Z,84.51
2017-03-12T03:54:50.185Z,84.61
2017-03-12T03:55:31.778Z,84.7
2017-03-12T03:56:12.400Z,84.7
2017-03-12T03:56:52.970Z,84.61
2017-03-12T03:57:33.588Z,84.7
2017-03-12T03:58:14.206Z,84.23
2017-03-12T03:58:54.802Z,84.32
2017-03-12T03:59:35.382Z,84.32
2017-03-12T04:00:16.026Z,84.8
2017-03-12T04:00:56.719Z,84.99
2017-03-12T04:01:37.338Z,85.08
2017-03-12T04:02:18.003Z,85.17
2017-03-12T04:02:58.636Z,84.8
2017-03-12T04:03:39.299Z,84.89
2017-03-12T04:04:19.935Z,85.17
2017-03-12T04:05:00.596Z,84.8
2017-03-12T04:05:41.228Z,85.17
2017-03-12T04:06:22.698Z,84.89
2017-03-12T04:07:04.297Z,84.89
2017-03-12T04:07:44.939Z,84.99
2017-03-12T04:08:25.600Z,85.08
2017-03-12T04:09:06.243Z,84.89
2017-03-12T04:09:46.907Z,84.7
2017-03-12T04:10:27.536Z,84.8
2017-03-12T04:11:08.105Z,84.51
2017-03-12T04:11:48.758Z,84.51
2017-03-12T04:12:30.413Z,84.7
2017-03-12T04:13:10.972Z,84.61
2017-03-12T04:13:51.621Z,84.61
2017-03-12T04:14:32.278Z,84.8
2017-03-12T04:15:12.874Z,85.17
2017-03-12T04:15:53.501Z,85.08
2017-03-12T04:16:34.129Z,85.17
2017-03-12T04:17:14.704Z,85.27
2017-03-12T04:17:55.344Z,85.17
2017-03-12T04:18:35.968Z,84.89
2017-03-12T04:19:16.539Z,85.08
2017-03-12T04:19:57.196Z,85.65
2017-03-12T04:20:37.844Z,85.74
2017-03-12T04:21:18.553Z,85.55
2017-03-12T04:21:59.170Z,85.55
2017-03-12T04:22:39.826Z,85.65
2017-03-12T04:23:20.456Z,85.55
2017-03-12T04:24:01.130Z,85.42
2017-03-12T04:24:41.782Z,85.46
2017-03-12T04:25:22.473Z,85.46
2017-03-12T04:26:03.065Z,85.65
2017-03-12T04:26:43.617Z,85.65
2017-03-12T04:27:24.281Z,85.27
2017-03-12T04:28:04.885Z,85.55
2017-03-12T04:28:45.462Z,85.55
2017-03-12T04:29:26.022Z,85.46
2017-03-12T04:30:06.689Z,85.46
2017-03-12T04:30:47.292Z,85.55
2017-03-12T04:31:27.881Z,85.65
2017-03-12T04:32:08.482Z,85.65
2017-03-12T04:32:49.096Z,85.42
2017-03-12T04:33:29.702Z,85.27
2017-03-12T04:34:10.288Z,85.61
2017-03-12T04:34:50.864Z,85.23
2017-03-12T04:35:31.448Z,85.32
2017-03-12T04:36:12.072Z,85.23
2017-03-12T04:36:52.695Z,85.32
2017-03-12T04:37:33.365Z,85.42
2017-03-12T04:38:14.029Z,85.51
2017-03-12T04:38:54.678Z,85.51
2017-03-12T04:39:35.340Z,85.32
2017-03-12T04:40:16.027Z,85.32
2017-03-12T04:40:56.619Z,85.13
2017-03-12T04:41:37.166Z,85.32
2017-03-12T04:42:17.846Z,85.13
2017-03-12T04:42:58.534Z,85.23
2017-03-12T04:43:39.126Z,85.7
2017-03-12T04:44:19.695Z,85.61
2017-03-12T04:45:00.359Z,85.23
2017-03-12T04:45:41.028Z,85.23
2017-03-12T04:46:21.633Z,85.7
2017-03-12T04:47:02.215Z,85.61
2017-03-12T04:47:43.877Z,85.61
2017-03-12T04:48:24.472Z,85.7
2017-03-12T04:49:05.066Z,85.61
2017-03-12T04:49:45.645Z,85.42
2017-03-12T04:50:26.260Z,85.51
2017-03-12T04:51:06.888Z,85.61
2017-03-12T04:51:47.480Z,85.7
2017-03-12T04:52:28.051Z,85.7
2017-03-12T04:53:08.737Z,85.99
2017-03-12T04:53:49.410Z,86.08
2017-03-12T04:54:29.977Z,86.08
2017-03-12T04:55:10.637Z,86.18
2017-03-12T04:55:51.278Z,86.08
2017-03-12T04:56:31.938Z,85.99
2017-03-12T04:57:12.589Z,85.99
2017-03-12T04:57:53.252Z,85.8
2017-03-12T04:58:33.897Z,85.8
2017-03-12T04:59:14.544Z,85.99
2017-03-12T04:59:55.199Z,86.18
2017-03-12T05:00:35.858Z,85.89
2017-03-12T05:01:16.508Z,86.08
2017-03-12T05:01:57.162Z,86.18
2017-03-12T05:02:37.724Z,85.99
2017-03-12T05:03:18.383Z,86.18
2017-03-12T05:03:59.024Z,86.18
2017-03-12T05:04:39.678Z,86.18
2017-03-12T05:05:20.282Z,86.27
2017-03-12T05:06:00.869Z,86.27
2017-03-12T05:06:41.420Z,86.18
2017-03-12T05:07:22.099Z,85.99
2017-03-12T05:08:02.792Z,86.65
2017-03-12T05:08:43.380Z,86.36
2017-03-12T05:09:23.956Z,86.46
2017-03-12T05:10:04.604Z,86.46
2017-03-12T05:10:45.200Z,86.65
2017-03-12T05:11:25.788Z,86.65
2017-03-12T05:12:06.352Z,86.18
2017-03-12T05:12:47.018Z,86.36
2017-03-12T05:13:27.709Z,86.46
2017-03-12T05:14:08.307Z,86.65
2017-03-12T05:14:48.876Z,86.36
2017-03-12T05:15:29.524Z,86.46
2017-03-12T05:16:10.250Z,86.27
2017-03-12T05:16:50.820Z,87.21
2017-03-12T05:17:31.483Z,87.02
2017-03-12T05:18:12.133Z,86.93
2017-03-12T05:18:52.785Z,87.02
2017-03-12T05:19:33.442Z,86.93
2017-03-12T05:20:14.079Z,87.12
2017-03-12T05:20:54.648Z,87.02
2017-03-12T05:21:35.321Z,86.83
2017-03-12T05:22:15.928Z,86.83
2017-03-12T05:22:56.501Z,86.83
2017-03-12T05:23:37.155Z,86.93
2017-03-12T05:24:17.792Z,86.93
2017-03-12T05:24:58.363Z,86.93
2017-03-12T05:25:39.041Z,86.93
2017-03-12T05:26:19.705Z,87.21
2017-03-12T05:27:00.294Z,86.74
2017-03-12T05:27:40.877Z,87.12
2017-03-12T05:28:21.543Z,87.12
2017-03-12T05:29:02.232Z,87.12
2017-03-12T05:29:42.808Z,87.12
2017-03-12T05:30:23.362Z,87.12
2017-03-12T05:31:04.030Z,87.02
2017-03-12T05:31:44.661Z,86.83
2017-03-12T05:32:25.239Z,86.93
2017-03-12T05:33:05.870Z,87.02
2017-03-12T05:33:46.729Z,86.83
2017-03-12T05:34:27.297Z,87.02
2017-03-12T05:35:07.943Z,86.93
2017-03-12T05:35:48.629Z,87.4
2017-03-12T05:36:29.243Z,87.02
2017-03-12T05:37:09.803Z,87.31
2017-03-12T05:37:50.461Z,87.31
2017-03-12T05:38:31.171Z,87.59
2017-03-12T05:39:11.852Z,87.4
2017-03-12T05:39:52.419Z,87.12
2017-03-12T05:40:33.067Z,87.4
2017-03-12T05:41:13.715Z,87.4
2017-03-12T05:41:54.373Z,87.5
2017-03-12T05:42:35.037Z,87.5
2017-03-12T05:43:16.722Z,87.69
2017-03-12T05:43:57.342Z,87.4
2017-03-12T05:44:38.194Z,87.5
2017-03-12T05:45:18.874Z,87.31
2017-03-12T05:45:59.498Z,87.5
2017-03-12T05:46:40.217Z,87.31
2017-03-12T05:47:20.808Z,87.31
2017-03-12T05:48:01.374Z,87.31
2017-03-12T05:48:42.039Z,87.5
2017-03-12T05:49:22.727Z,87.5
2017-03-12T05:50:03.429Z,87.02
2017-03-12T05:50:43.997Z,87.02
2017-03-12T05:51:24.642Z,87.31
2017-03-12T05:52:05.289Z,87.31
2017-03-12T05:52:45.932Z,87.4
2017-03-12T05:53:26.609Z,87.21
2017-03-12T05:54:07.247Z,87.21
2017-03-12T05:54:47.898Z,87.21
2017-03-12T05:55:28.549Z,87.5
2017-03-12T05:56:09.226Z,87.5
2017-03-12T05:56:49.858Z,87.5
2017-03-12T05:57:30.515Z,87.5
2017-03-12T05:58:11.168Z,87.4
2017-03-12T05:58:51.821Z,87.31
2017-03-12T05:59:32.478Z,87.31
2017-03-12T06:00:13.123Z,87.31
2017-03-12T06:00:53.705Z,87.31
2017-03-12T06:01:34.321Z,87.31
2017-03-12T06:02:14.873Z,87.4
2017-03-12T06:02:55.526Z,87.31
2017-03-12T06:03:36.129Z,87.31
2017-03-12T06:04:16.710Z,87.31
2017-03-12T06:04:57.263Z,87.02
2017-03-12T06:05:37.950Z,86.83
2017-03-12T06:06:18.570Z,87.02
2017-03-12T06:06:59.129Z,87.02
2017-03-12T06:07:39.796Z,87.02
2017-03-12T06:08:20.433Z,87.5
2017-03-12T06:09:00.987Z,87.31
2017-03-12T06:09:41.696Z,87.02
2017-03-12T06:10:22.282Z,87.02
2017-03-12T06:11:02.857Z,87.02
2017-03-12T06:11:43.488Z,87.02
2017-03-12T06:12:24.176Z,86.83
2017-03-12T06:13:04.829Z,86.83
2017-03-12T06:13:45.470Z,87.5
2017-03-12T06:14:26.127Z,86.83
2017-03-12T06:15:06.803Z,86.93
2017-03-12T06:15:47.404Z,87.12
2017-03-12T06:16:28.074Z,87.69
2017-03-12T06:17:08.728Z,87.02
2017-03-12T06:17:49.373Z,87.21
2017-03-12T06:18:30.017Z,87.02
2017-03-12T06:19:10.669Z,87.02
2017-03-12T06:19:51.333Z,86.93
2017-03-12T06:20:31.891Z,87.21
2017-03-12T06:21:12.551Z,87.21
2017-03-12T06:21:53.235Z,87.21
2017-03-12T06:22:33.830Z,87.12
2017-03-12T06:23:14.425Z,86.65
2017-03-12T06:23:55.081Z,86.83
2017-03-12T06:24:35.653Z,86.93
2017-03-12T06:25:16.274Z,86.83
2017-03-12T06:25:56.842Z,86.83
2017-03-12T06:26:37.463Z,87.02
2017-03-12T06:27:18.152Z,87.02
2017-03-12T06:27:58.755Z,87.02
2017-03-12T06:28:39.316Z,87.02
2017-03-12T06:29:19.973Z,86.93
2017-03-12T06:30:00.775Z,87.02
2017-03-12T06:30:41.420Z,87.02
2017-03-12T06:31:22.078Z,87.02
2017-03-12T06:32:02.723Z,87.02
2017-03-12T06:32:43.376Z,86.83
2017-03-12T06:33:24.033Z,86.83
2017-03-12T06:34:04.684Z,87.21
2017-03-12T06:34:45.344Z,87.21
2017-03-12T06:35:25.987Z,87.02
2017-03-12T06:36:06.594Z,87.21
2017-03-12T06:36:47.261Z,87.02
2017-03-12T06:37:27.905Z,87.21
2017-03-12T06:38:08.563Z,86.36
2017-03-12T06:38:49.220Z,86.65
2017-03-12T06:39:29.872Z,86.46
2017-03-12T06:40:10.515Z,86.46
2017-03-12T06:40:51.175Z,86.27
2017-03-12T06:41:31.819Z,86.55
2017-03-12T06:42:12.495Z,86.65
2017-03-12T06:42:54.153Z,86.36
2017-03-12T06:43:34.809Z,86.36
2017-03-12T06:44:15.489Z,86.55
2017-03-12T06:44:56.119Z,86.46
2017-03-12T06:45:36.712Z,86.46
2017-03-12T06:46:17.310Z,86.46
2017-03-12T06:46:57.881Z,85.8
2017-03-12T06:47:38.543Z,86.31
2017-03-12T06:48:19.217Z,86.22
2017-03-12T06:48:59.813Z,86.22
2017-03-12T06:49:40.415Z,86.03
2017-03-12T06:50:21.054Z,85.93
2017-03-12T06:51:01.631Z,85.93
2017-03-12T06:51:42.218Z,85.93
2017-03-12T06:52:22.795Z,86.03
2017-03-12T06:53:03.450Z,86.03
2017-03-12T06:53:44.126Z,85.93
2017-03-12T06:54:24.727Z,86.03
2017-03-12T06:55:05.309Z,86.03
2017-03-12T06:55:45.973Z,86.03
2017-03-12T06:56:26.532Z,86.12
2017-03-12T06:57:07.101Z,86.03
2017-03-12T06:57:47.695Z,85.93
2017-03-12T06:58:28.264Z,86.22
2017-03-12T06:59:08.914Z,85.65
2017-03-12T06:59:49.617Z,85.74
2017-03-12T07:00:30.163Z,85.36
2017-03-12T07:01:10.772Z,85.55
2017-03-12T07:01:51.406Z,85.36
2017-03-12T07:02:31.978Z,85.55
2017-03-12T07:03:12.629Z,85.36
2017-03-12T07:03:54.828Z,85.65
2017-03-12T07:04:35.392Z,85.36
2017-03-12T07:05:15.990Z,85.74
2017-03-12T07:05:56.619Z,85.08
2017-03-12T07:06:37.190Z,84.99
2017-03-12T07:07:17.844Z,84.89
2017-03-12T07:07:58.470Z,85.08
2017-03-12T07:08:39.105Z,85.08
2017-03-12T07:09:20.731Z,84.7
2017-03-12T07:10:01.349Z,84.99
2017-03-12T07:10:41.909Z,84.99
2017-03-12T07:11:22.577Z,85.17
2017-03-12T07:12:03.214Z,85.08
2017-03-12T07:12:43.784Z,84.89
2017-03-12T07:13:24.438Z,84.61
2017-03-12T07:14:05.017Z,84.13
2017-03-12T07:14:45.602Z,84.23
2017-03-12T07:15:26.204Z,84.61
2017-03-12T07:16:06.833Z,84.61
2017-03-12T07:16:47.405Z,84.32
2017-03-12T07:17:29.087Z,84.51
2017-03-12T07:18:09.712Z,84.23
2017-03-12T07:18:50.260Z,84.13
2017-03-12T07:19:30.916Z,84.42
2017-03-12T07:20:11.564Z,84.7
2017-03-12T07:20:52.226Z,84.13
2017-03-12T07:21:32.879Z,84.04
2017-03-12T07:22:13.529Z,84.23
2017-03-12T07:22:54.156Z,84.23
2017-03-12T07:23:34.828Z,84.23
2017-03-12T07:24:15.470Z,83.75
2017-03-12T07:24:56.117Z,83.75
2017-03-12T07:25:36.672Z,83.56
2017-03-12T07:26:17.363Z,83.56
2017-03-12T07:26:57.994Z,83.47
2017-03-12T07:27:38.648Z,83.28
2017-03-12T07:28:19.326Z,83.56
2017-03-12T07:28:59.953Z,83.56
2017-03-12T07:29:40.606Z,83.75
2017-03-12T07:30:22.284Z,83.23
2017-03-12T07:31:02.891Z,83.13
2017-03-12T07:31:43.468Z,83.23
2017-03-12T07:32:24.043Z,83.13
2017-03-12T07:33:04.692Z,83.51
2017-03-12T07:33:45.281Z,83.23
2017-03-12T07:34:25.876Z,83.04
2017-03-12T07:35:06.451Z,83.13
2017-03-12T07:35:47.090Z,83.23
2017-03-12T07:36:27.752Z,82.85
2017-03-12T07:37:09.436Z,82.28
2017-03-12T07:37:50.064Z,82.66
2017-03-12T07:38:30.721Z,82.47
2017-03-12T07:39:11.386Z,82.56
2017-03-12T07:39:52.039Z,82.28
2017-03-12T07:40:32.685Z,82.18
2017-03-12T07:41:13.333Z,82.37
2017-03-12T07:41:53.979Z,82.47
2017-03-12T07:42:34.652Z,82.37
2017-03-12T07:43:15.314Z,81.99
2017-03-12T07:43:55.943Z,82.28
2017-03-12T07:44:36.605Z,82.56
2017-03-12T07:45:17.265Z,82.75
2017-03-12T07:45:57.897Z,82.28
2017-03-12T07:46:38.572Z,82.18
2017-03-12T07:47:19.143Z,82.28
2017-03-12T07:47:59.772Z,82.09
2017-03-12T07:48:40.425Z,81.9
2017-03-12T07:49:22.119Z,81.9
2017-03-12T07:50:02.791Z,82.09
2017-03-12T07:50:43.455Z,81.9
2017-03-12T07:51:24.096Z,81.71
2017-03-12T07:52:04.749Z,81.52
2017-03-12T07:52:45.409Z,81.33
2017-03-12T07:53:27.102Z,81.24
2017-03-12T07:54:07.733Z,81.52
2017-03-12T07:54:48.387Z,81.52
2017-03-12T07:55:29.044Z,80.86
2017-03-12T07:56:09.677Z,81.27
2017-03-12T07:56:50.329Z,81.09
2017-03-12T07:57:30.983Z,80.8
2017-03-12T07:58:11.610Z,80.9
2017-03-12T07:58:52.313Z,80.8
2017-03-12T07:59:32.948Z,81.47
2017-03-12T08:00:13.590Z,80.43
2017-03-12T08:00:54.236Z,80.62
2017-03-12T08:01:34.891Z,80.71
2017-03-12T08:02:15.554Z,80.24
2017-03-12T08:02:56.200Z,80.43
2017-03-12T08:03:36.882Z,80.24
2017-03-12T08:04:17.496Z,80.43
2017-03-12T08:04:58.182Z,80.24
2017-03-12T08:05:39.839Z,80.62
2017-03-12T08:06:20.507Z,80.14
2017-03-12T08:07:01.147Z,80.04
2017-03-12T08:07:41.805Z,79.85
2017-03-12T08:08:22.460Z,79.95
2017-03-12T08:09:03.107Z,80.24
2017-03-12T08:09:43.762Z,80.33
2017-03-12T08:10:24.412Z,79.57
2017-03-12T08:11:05.127Z,79.38
2017-03-12T08:11:45.802Z,79.47
2017-03-12T08:12:26.396Z,79.1
2017-03-12T08:13:07.010Z,79.28
2017-03-12T08:13:47.630Z,79.47
2017-03-12T08:14:28.312Z,79.28
2017-03-12T08:15:08.883Z,79.42
2017-03-12T08:15:49.525Z,78.95
2017-03-12T08:16:31.148Z,79.04
2017-03-12T08:17:11.842Z,78.66
2017-03-12T08:17:52.414Z,78.85
2017-03-12T08:18:33.066Z,78.95
2017-03-12T08:19:13.757Z,78.66
2017-03-12T08:19:54.452Z,78.19
2017-03-12T08:20:35.023Z,78.85
2017-03-12T08:21:15.669Z,78.66
2017-03-12T08:21:56.335Z,78.56
2017-03-12T08:22:36.988Z,78.56
2017-03-12T08:23:17.638Z,78.19
2017-03-12T08:23:58.289Z,78.09
2017-03-12T08:24:38.933Z,78.28
2017-03-12T08:25:19.601Z,78.09
2017-03-12T08:26:00.242Z,78.09
2017-03-12T08:26:40.903Z,77.9
2017-03-12T08:27:21.561Z,77.62
2017-03-12T08:28:02.219Z,77.52
2017-03-12T08:28:42.853Z,77.71
2017-03-12T08:29:23.522Z,77.52
2017-03-12T08:30:05.200Z,77.33
2017-03-12T08:30:45.839Z,77.14
2017-03-12T08:31:26.497Z,76.95
2017-03-12T08:32:07.148Z,77.09
2017-03-12T08:32:47.759Z,77.37
2017-03-12T08:33:29.374Z,76.52
2017-03-12T08:34:10.025Z,76.61
2017-03-12T08:34:52.731Z,76.71
2017-03-12T08:35:33.355Z,76.42
2017-03-12T08:36:13.960Z,76.42
2017-03-12T08:36:54.642Z,76.52
2017-03-12T08:37:35.237Z,76.9
2017-03-12T08:38:15.875Z,76.61
2017-03-12T08:38:56.575Z,76.23
2017-03-12T08:39:37.263Z,76.14
2017-03-12T08:40:17.816Z,76.14
2017-03-12T08:40:58.462Z,76.14
2017-03-12T08:41:39.129Z,76.32
2017-03-12T08:42:19.792Z,75.67
2017-03-12T08:43:00.447Z,75.85
2017-03-12T08:43:41.095Z,75.76
2017-03-12T08:44:21.759Z,75.67
2017-03-12T08:45:02.411Z,75.47
2017-03-12T08:45:43.045Z,74.81
2017-03-12T08:46:23.701Z,74.81
2017-03-12T08:47:04.366Z,74.71